sensor_id;sensor_type;location;lat;lon;timestamp;P1;durP1;ratioP1;P2;durP2;ratioP2
35677;SDS011;21791;42.828;74.582;2022-12-11T00:01:44;92.90;;;34.42;;
35677;SDS011;21791;42.828;74.582;2022-12-11T00:04:11;48.45;;;18.15;;
35677;SDS011;21791;42.828;74.582;2022-12-11T00:06:38;75.75;;;29.38;;
35677;SDS011;21791;42.828;74.582;2022-12-11T00:09:05;74.25;;;25.77;;
35677;SDS011;21791;42.828;74.582;2022-12-11T00:11:31;53.58;;;21.38;;
35677;SDS011;21791;42.828;74.582;2022-12-11T00:13:58;40.47;;;16.15;;
35677;SDS011;21791;42.828;74.582;2022-12-11T00:16:24;46.85;;;17.50;;
35677;SDS011;21791;42.828;74.582;2022-12-11T00:18:51;46.38;;;18.70;;
35677;SDS011;21791;42.828;74.582;2022-12-11T00:21:18;41.65;;;16.23;;
35677;SDS011;21791;42.828;74.582;2022-12-11T00:23:44;32.58;;;12.75;;
35677;SDS011;21791;42.828;74.582;2022-12-11T00:26:13;37.58;;;14.63;;
35677;SDS011;21791;42.828;74.582;2022-12-11T00:28:41;39.78;;;13.98;;
35677;SDS011;21791;42.828;74.582;2022-12-11T00:31:10;33.28;;;12.75;;
35677;SDS011;21791;42.828;74.582;2022-12-11T00:33:41;32.80;;;12.57;;
35677;SDS011;21791;42.828;74.582;2022-12-11T00:36:11;32.70;;;13.07;;
35677;SDS011;21791;42.828;74.582;2022-12-11T00:38:42;32.25;;;13.77;;
35677;SDS011;21791;42.828;74.582;2022-12-11T00:41:09;39.03;;;16.60;;
35677;SDS011;21791;42.828;74.582;2022-12-11T00:43:36;56.97;;;23.67;;
35677;SDS011;21791;42.828;74.582;2022-12-11T00:46:03;70.88;;;26.10;;
35677;SDS011;21791;42.828;74.582;2022-12-11T00:48:30;58.55;;;23.90;;
35677;SDS011;21791;42.828;74.582;2022-12-11T00:50:56;53.55;;;22.45;;
35677;SDS011;21791;42.828;74.582;2022-12-11T00:53:23;48.45;;;21.25;;
35677;SDS011;21791;42.828;74.582;2022-12-11T00:55:49;35.08;;;15.85;;
35677;SDS011;21791;42.828;74.582;2022-12-11T00:58:16;34.58;;;14.50;;
35677;SDS011;21791;42.828;74.582;2022-12-11T01:00:42;31.17;;;14.95;;
35677;SDS011;21791;42.828;74.582;2022-12-11T01:03:10;32.80;;;15.07;;
35677;SDS011;21791;42.828;74.582;2022-12-11T01:05:39;38.35;;;15.80;;
35677;SDS011;21791;42.828;74.582;2022-12-11T01:08:05;34.17;;;14.82;;
35677;SDS011;21791;42.828;74.582;2022-12-11T01:10:32;29.88;;;14.07;;
35677;SDS011;21791;42.828;74.582;2022-12-11T01:13:00;28.88;;;14.02;;
35677;SDS011;21791;42.828;74.582;2022-12-11T01:15:30;25.73;;;11.43;;
35677;SDS011;21791;42.828;74.582;2022-12-11T01:17:59;31.55;;;13.35;;
35677;SDS011;21791;42.828;74.582;2022-12-11T01:20:26;33.58;;;13.88;;
35677;SDS011;21791;42.828;74.582;2022-12-11T01:22:53;33.00;;;14.57;;
35677;SDS011;21791;42.828;74.582;2022-12-11T01:25:21;35.08;;;15.57;;
35677;SDS011;21791;42.828;74.582;2022-12-11T01:27:49;29.38;;;13.77;;
35677;SDS011;21791;42.828;74.582;2022-12-11T01:30:17;33.42;;;15.05;;
35677;SDS011;21791;42.828;74.582;2022-12-11T01:32:44;35.22;;;15.23;;
35677;SDS011;21791;42.828;74.582;2022-12-11T01:35:11;40.63;;;16.50;;
35677;SDS011;21791;42.828;74.582;2022-12-11T01:37:38;40.78;;;17.30;;
35677;SDS011;21791;42.828;74.582;2022-12-11T01:40:06;37.45;;;17.30;;
35677;SDS011;21791;42.828;74.582;2022-12-11T01:42:33;61.75;;;24.42;;
35677;SDS011;21791;42.828;74.582;2022-12-11T01:45:47;88.13;;;31.13;;
35677;SDS011;21791;42.828;74.582;2022-12-11T01:48:06;64.38;;;24.88;;
35677;SDS011;21791;42.828;74.582;2022-12-11T01:50:37;75.72;;;28.42;;
35677;SDS011;21791;42.828;74.582;2022-12-11T01:53:07;57.20;;;23.35;;
35677;SDS011;21791;42.828;74.582;2022-12-11T01:55:37;92.57;;;34.03;;
35677;SDS011;21791;42.828;74.582;2022-12-11T01:58:05;118.30;;;41.58;;
35677;SDS011;21791;42.828;74.582;2022-12-11T02:00:33;70.05;;;29.15;;
35677;SDS011;21791;42.828;74.582;2022-12-11T02:02:59;72.10;;;29.08;;
35677;SDS011;21791;42.828;74.582;2022-12-11T02:05:26;86.97;;;33.15;;
35677;SDS011;21791;42.828;74.582;2022-12-11T02:07:53;76.80;;;29.20;;
35677;SDS011;21791;42.828;74.582;2022-12-11T02:10:23;68.40;;;27.55;;
35677;SDS011;21791;42.828;74.582;2022-12-11T02:13:35;81.75;;;33.00;;
35677;SDS011;21791;42.828;74.582;2022-12-11T02:21:22;122.03;;;49.92;;
35677;SDS011;21791;42.828;74.582;2022-12-11T02:26:50;129.52;;;52.42;;
35677;SDS011;21791;42.828;74.582;2022-12-11T02:32:56;177.48;;;67.22;;
35677;SDS011;21791;42.828;74.582;2022-12-11T02:35:30;140.05;;;53.85;;
35677;SDS011;21791;42.828;74.582;2022-12-11T02:38:09;127.05;;;51.25;;
35677;SDS011;21791;42.828;74.582;2022-12-11T02:40:42;82.05;;;36.30;;
35677;SDS011;21791;42.828;74.582;2022-12-11T02:43:12;64.97;;;27.48;;
35677;SDS011;21791;42.828;74.582;2022-12-11T02:45:41;74.00;;;31.38;;
35677;SDS011;21791;42.828;74.582;2022-12-11T02:48:10;76.80;;;31.88;;
35677;SDS011;21791;42.828;74.582;2022-12-11T02:50:41;75.53;;;32.70;;
35677;SDS011;21791;42.828;74.582;2022-12-11T02:53:15;61.70;;;29.40;;
35677;SDS011;21791;42.828;74.582;2022-12-11T02:55:45;62.50;;;27.65;;
35677;SDS011;21791;42.828;74.582;2022-12-11T02:58:29;56.78;;;22.60;;
35677;SDS011;21791;42.828;74.582;2022-12-11T03:00:57;49.42;;;23.33;;
35677;SDS011;21791;42.828;74.582;2022-12-11T03:03:24;43.30;;;20.15;;
35677;SDS011;21791;42.828;74.582;2022-12-11T03:05:51;44.38;;;19.98;;
35677;SDS011;21791;42.828;74.582;2022-12-11T03:08:18;39.55;;;18.45;;
35677;SDS011;21791;42.828;74.582;2022-12-11T03:10:44;50.63;;;22.65;;
35677;SDS011;21791;42.828;74.582;2022-12-11T03:13:12;39.05;;;19.98;;
35677;SDS011;21791;42.828;74.582;2022-12-11T03:26:38;34.58;;;14.68;;
35677;SDS011;21791;42.828;74.582;2022-12-11T03:29:14;32.30;;;15.48;;
35677;SDS011;21791;42.828;74.582;2022-12-11T03:31:49;35.50;;;16.42;;
35677;SDS011;21791;42.828;74.582;2022-12-11T03:34:31;40.92;;;17.45;;
35677;SDS011;21791;42.828;74.582;2022-12-11T03:37:06;39.33;;;18.45;;
35677;SDS011;21791;42.828;74.582;2022-12-11T03:39:36;43.28;;;19.73;;
35677;SDS011;21791;42.828;74.582;2022-12-11T03:42:07;38.35;;;17.35;;
35677;SDS011;21791;42.828;74.582;2022-12-11T03:44:36;42.92;;;20.17;;
35677;SDS011;21791;42.828;74.582;2022-12-11T03:47:03;36.42;;;19.05;;
35677;SDS011;21791;42.828;74.582;2022-12-11T03:49:33;34.53;;;17.55;;
35677;SDS011;21791;42.828;74.582;2022-12-11T03:52:03;34.28;;;19.02;;
35677;SDS011;21791;42.828;74.582;2022-12-11T03:54:31;38.85;;;19.92;;
35677;SDS011;21791;42.828;74.582;2022-12-11T03:57:00;36.85;;;19.60;;
35677;SDS011;21791;42.828;74.582;2022-12-11T03:59:28;36.28;;;18.02;;
35677;SDS011;21791;42.828;74.582;2022-12-11T04:01:55;36.60;;;17.90;;
35677;SDS011;21791;42.828;74.582;2022-12-11T04:04:21;34.95;;;18.73;;
35677;SDS011;21791;42.828;74.582;2022-12-11T04:06:48;43.00;;;21.17;;
35677;SDS011;21791;42.828;74.582;2022-12-11T04:09:14;37.40;;;19.73;;
35677;SDS011;21791;42.828;74.582;2022-12-11T04:11:42;39.38;;;20.15;;
35677;SDS011;21791;42.828;74.582;2022-12-11T04:14:09;43.30;;;22.30;;
35677;SDS011;21791;42.828;74.582;2022-12-11T04:16:56;43.53;;;22.45;;
35677;SDS011;21791;42.828;74.582;2022-12-11T04:19:24;44.47;;;22.40;;
35677;SDS011;21791;42.828;74.582;2022-12-11T04:22:14;38.13;;;19.50;;
35677;SDS011;21791;42.828;74.582;2022-12-11T04:25:00;45.08;;;22.70;;
35677;SDS011;21791;42.828;74.582;2022-12-11T04:27:27;44.50;;;22.95;;
35677;SDS011;21791;42.828;74.582;2022-12-11T04:30:18;54.25;;;27.10;;
35677;SDS011;21791;42.828;74.582;2022-12-11T04:32:46;49.47;;;25.65;;
35677;SDS011;21791;42.828;74.582;2022-12-11T04:35:14;56.85;;;29.65;;
35677;SDS011;21791;42.828;74.582;2022-12-11T04:37:41;55.13;;;29.08;;
35677;SDS011;21791;42.828;74.582;2022-12-11T04:40:09;63.08;;;34.17;;
35677;SDS011;21791;42.828;74.582;2022-12-11T04:42:38;61.85;;;35.72;;
35677;SDS011;21791;42.828;74.582;2022-12-11T04:45:05;75.65;;;39.45;;
35677;SDS011;21791;42.828;74.582;2022-12-11T04:47:36;90.47;;;47.28;;
35677;SDS011;21791;42.828;74.582;2022-12-11T04:50:04;94.18;;;51.72;;
35677;SDS011;21791;42.828;74.582;2022-12-11T04:52:32;91.25;;;46.60;;
35677;SDS011;21791;42.828;74.582;2022-12-11T04:54:59;93.72;;;51.58;;
35677;SDS011;21791;42.828;74.582;2022-12-11T04:57:25;98.93;;;57.95;;
35677;SDS011;21791;42.828;74.582;2022-12-11T04:59:51;98.38;;;54.58;;
35677;SDS011;21791;42.828;74.582;2022-12-11T05:02:18;94.32;;;54.70;;
35677;SDS011;21791;42.828;74.582;2022-12-11T05:04:47;118.15;;;66.20;;
35677;SDS011;21791;42.828;74.582;2022-12-11T05:07:13;155.60;;;95.22;;
35677;SDS011;21791;42.828;74.582;2022-12-11T05:09:40;185.35;;;107.38;;
35677;SDS011;21791;42.828;74.582;2022-12-11T05:12:07;237.65;;;137.25;;
35677;SDS011;21791;42.828;74.582;2022-12-11T05:14:33;253.10;;;144.63;;
35677;SDS011;21791;42.828;74.582;2022-12-11T05:17:00;240.07;;;132.35;;
35677;SDS011;21791;42.828;74.582;2022-12-11T05:19:26;239.27;;;133.30;;
35677;SDS011;21791;42.828;74.582;2022-12-11T05:21:53;254.80;;;139.68;;
35677;SDS011;21791;42.828;74.582;2022-12-11T05:24:20;256.05;;;141.85;;
35677;SDS011;21791;42.828;74.582;2022-12-11T05:26:47;247.38;;;142.80;;
35677;SDS011;21791;42.828;74.582;2022-12-11T05:29:16;242.80;;;137.45;;
35677;SDS011;21791;42.828;74.582;2022-12-11T05:31:43;249.05;;;135.02;;
35677;SDS011;21791;42.828;74.582;2022-12-11T05:34:10;211.90;;;121.05;;
35677;SDS011;21791;42.828;74.582;2022-12-11T05:36:36;280.58;;;153.45;;
35677;SDS011;21791;42.828;74.582;2022-12-11T05:39:03;311.60;;;181.68;;
35677;SDS011;21791;42.828;74.582;2022-12-11T05:41:29;317.45;;;183.70;;
35677;SDS011;21791;42.828;74.582;2022-12-11T05:43:57;327.08;;;188.30;;
35677;SDS011;21791;42.828;74.582;2022-12-11T05:46:24;322.65;;;181.90;;
35677;SDS011;21791;42.828;74.582;2022-12-11T05:48:54;314.20;;;174.93;;
35677;SDS011;21791;42.828;74.582;2022-12-11T05:51:23;314.40;;;171.40;;
35677;SDS011;21791;42.828;74.582;2022-12-11T05:53:51;330.50;;;185.85;;
35677;SDS011;21791;42.828;74.582;2022-12-11T05:56:20;320.10;;;186.35;;
35677;SDS011;21791;42.828;74.582;2022-12-11T05:58:51;343.40;;;195.77;;
35677;SDS011;21791;42.828;74.582;2022-12-11T06:01:19;354.90;;;199.98;;
35677;SDS011;21791;42.828;74.582;2022-12-11T06:03:54;357.10;;;204.40;;
35677;SDS011;21791;42.828;74.582;2022-12-11T06:06:22;392.50;;;224.80;;
35677;SDS011;21791;42.828;74.582;2022-12-11T06:08:49;402.92;;;225.80;;
35677;SDS011;21791;42.828;74.582;2022-12-11T06:11:17;381.60;;;218.48;;
35677;SDS011;21791;42.828;74.582;2022-12-11T06:13:44;388.38;;;220.20;;
35677;SDS011;21791;42.828;74.582;2022-12-11T06:16:10;381.65;;;217.43;;
35677;SDS011;21791;42.828;74.582;2022-12-11T06:18:39;387.48;;;218.35;;
35677;SDS011;21791;42.828;74.582;2022-12-11T06:21:11;401.02;;;220.43;;
35677;SDS011;21791;42.828;74.582;2022-12-11T06:23:50;404.25;;;223.50;;
35677;SDS011;21791;42.828;74.582;2022-12-11T06:26:18;411.67;;;223.30;;
35677;SDS011;21791;42.828;74.582;2022-12-11T06:28:46;405.17;;;221.07;;
35677;SDS011;21791;42.828;74.582;2022-12-11T06:31:13;397.20;;;222.93;;
35677;SDS011;21791;42.828;74.582;2022-12-11T06:33:40;403.45;;;216.93;;
35677;SDS011;21791;42.828;74.582;2022-12-11T06:36:09;403.60;;;219.95;;
35677;SDS011;21791;42.828;74.582;2022-12-11T06:38:38;395.00;;;227.27;;
35677;SDS011;21791;42.828;74.582;2022-12-11T06:41:05;391.52;;;221.27;;
35677;SDS011;21791;42.828;74.582;2022-12-11T06:43:33;406.95;;;218.77;;
35677;SDS011;21791;42.828;74.582;2022-12-11T06:46:02;386.75;;;217.20;;
35677;SDS011;21791;42.828;74.582;2022-12-11T06:48:34;389.75;;;222.73;;
35677;SDS011;21791;42.828;74.582;2022-12-11T06:51:07;399.35;;;217.32;;
35677;SDS011;21791;42.828;74.582;2022-12-11T06:53:38;392.85;;;231.35;;
35677;SDS011;21791;42.828;74.582;2022-12-11T06:56:06;389.05;;;229.98;;
35677;SDS011;21791;42.828;74.582;2022-12-11T06:58:40;379.40;;;219.00;;
35677;SDS011;21791;42.828;74.582;2022-12-11T07:01:26;381.10;;;218.80;;
35677;SDS011;21791;42.828;74.582;2022-12-11T07:03:56;399.25;;;216.48;;
35677;SDS011;21791;42.828;74.582;2022-12-11T07:06:25;379.50;;;224.55;;
35677;SDS011;21791;42.828;74.582;2022-12-11T07:08:52;390.25;;;225.75;;
35677;SDS011;21791;42.828;74.582;2022-12-11T07:11:20;394.73;;;226.90;;
35677;SDS011;21791;42.828;74.582;2022-12-11T07:13:47;406.10;;;229.52;;
35677;SDS011;21791;42.828;74.582;2022-12-11T07:16:15;398.17;;;226.18;;
35677;SDS011;21791;42.828;74.582;2022-12-11T07:18:45;398.02;;;222.90;;
35677;SDS011;21791;42.828;74.582;2022-12-11T07:21:13;398.65;;;219.48;;
35677;SDS011;21791;42.828;74.582;2022-12-11T07:23:41;378.50;;;221.55;;
35677;SDS011;21791;42.828;74.582;2022-12-11T07:26:12;378.02;;;216.52;;
35677;SDS011;21791;42.828;74.582;2022-12-11T07:28:40;377.95;;;210.00;;
35677;SDS011;21791;42.828;74.582;2022-12-11T07:31:08;410.60;;;211.80;;
35677;SDS011;21791;42.828;74.582;2022-12-11T07:33:40;387.80;;;212.77;;
35677;SDS011;21791;42.828;74.582;2022-12-11T07:36:08;382.23;;;216.93;;
35677;SDS011;21791;42.828;74.582;2022-12-11T07:38:36;374.27;;;213.40;;
35677;SDS011;21791;42.828;74.582;2022-12-11T07:41:04;386.60;;;207.80;;
35677;SDS011;21791;42.828;74.582;2022-12-11T07:43:33;369.05;;;204.82;;
35677;SDS011;21791;42.828;74.582;2022-12-11T07:46:00;356.10;;;201.77;;
35677;SDS011;21791;42.828;74.582;2022-12-11T07:48:29;351.50;;;195.30;;
35677;SDS011;21791;42.828;74.582;2022-12-11T07:51:05;360.27;;;199.02;;
35677;SDS011;21791;42.828;74.582;2022-12-11T07:53:35;345.60;;;191.10;;
35677;SDS011;21791;42.828;74.582;2022-12-11T07:56:02;344.42;;;186.85;;
35677;SDS011;21791;42.828;74.582;2022-12-11T07:58:29;354.85;;;192.13;;
35677;SDS011;21791;42.828;74.582;2022-12-11T08:00:55;332.08;;;178.70;;
35677;SDS011;21791;42.828;74.582;2022-12-11T08:03:22;321.77;;;180.68;;
35677;SDS011;21791;42.828;74.582;2022-12-11T08:05:50;321.75;;;180.23;;
35677;SDS011;21791;42.828;74.582;2022-12-11T08:08:18;328.88;;;178.65;;
35677;SDS011;21791;42.828;74.582;2022-12-11T08:10:45;309.15;;;178.90;;
35677;SDS011;21791;42.828;74.582;2022-12-11T08:13:11;317.30;;;170.68;;
35677;SDS011;21791;42.828;74.582;2022-12-11T08:15:38;306.55;;;173.45;;
35677;SDS011;21791;42.828;74.582;2022-12-11T08:18:04;297.95;;;165.13;;
35677;SDS011;21791;42.828;74.582;2022-12-11T08:20:31;289.60;;;159.88;;
35677;SDS011;21791;42.828;74.582;2022-12-11T08:22:58;293.90;;;166.23;;
35677;SDS011;21791;42.828;74.582;2022-12-11T08:25:24;303.20;;;162.00;;
35677;SDS011;21791;42.828;74.582;2022-12-11T08:27:51;293.05;;;161.05;;
35677;SDS011;21791;42.828;74.582;2022-12-11T08:30:17;279.85;;;159.75;;
35677;SDS011;21791;42.828;74.582;2022-12-11T08:32:44;248.63;;;132.48;;
35677;SDS011;21791;42.828;74.582;2022-12-11T08:35:10;250.30;;;133.52;;
35677;SDS011;21791;42.828;74.582;2022-12-11T08:37:37;239.20;;;130.27;;
35677;SDS011;21791;42.828;74.582;2022-12-11T08:40:04;239.00;;;135.05;;
35677;SDS011;21791;42.828;74.582;2022-12-11T08:42:32;257.48;;;134.52;;
35677;SDS011;21791;42.828;74.582;2022-12-11T08:44:59;231.35;;;126.70;;
35677;SDS011;21791;42.828;74.582;2022-12-11T08:47:26;222.18;;;122.85;;
35677;SDS011;21791;42.828;74.582;2022-12-11T08:49:53;253.32;;;124.53;;
35677;SDS011;21791;42.828;74.582;2022-12-11T08:52:21;218.55;;;121.70;;
35677;SDS011;21791;42.828;74.582;2022-12-11T08:54:48;229.90;;;119.28;;
35677;SDS011;21791;42.828;74.582;2022-12-11T08:57:14;216.65;;;119.15;;
35677;SDS011;21791;42.828;74.582;2022-12-11T08:59:41;229.93;;;120.53;;
35677;SDS011;21791;42.828;74.582;2022-12-11T09:02:10;226.77;;;119.55;;
35677;SDS011;21791;42.828;74.582;2022-12-11T09:04:37;226.32;;;120.00;;
35677;SDS011;21791;42.828;74.582;2022-12-11T09:07:04;235.55;;;121.15;;
35677;SDS011;21791;42.828;74.582;2022-12-11T09:09:31;222.50;;;121.78;;
35677;SDS011;21791;42.828;74.582;2022-12-11T09:11:58;224.00;;;118.78;;
35677;SDS011;21791;42.828;74.582;2022-12-11T09:14:26;224.88;;;117.53;;
35677;SDS011;21791;42.828;74.582;2022-12-11T09:16:52;237.00;;;125.60;;
35677;SDS011;21791;42.828;74.582;2022-12-11T09:19:19;234.52;;;128.48;;
35677;SDS011;21791;42.828;74.582;2022-12-11T09:21:45;231.93;;;126.78;;
35677;SDS011;21791;42.828;74.582;2022-12-11T09:24:12;231.45;;;128.98;;
35677;SDS011;21791;42.828;74.582;2022-12-11T09:26:40;228.70;;;126.95;;
35677;SDS011;21791;42.828;74.582;2022-12-11T09:29:06;240.07;;;132.45;;
35677;SDS011;21791;42.828;74.582;2022-12-11T09:31:35;243.75;;;131.93;;
35677;SDS011;21791;42.828;74.582;2022-12-11T09:34:06;238.15;;;127.93;;
35677;SDS011;21791;42.828;74.582;2022-12-11T09:36:40;246.73;;;130.57;;
35677;SDS011;21791;42.828;74.582;2022-12-11T09:39:10;246.02;;;132.73;;
35677;SDS011;21791;42.828;74.582;2022-12-11T09:41:48;238.60;;;125.22;;
35677;SDS011;21791;42.828;74.582;2022-12-11T09:46:53;236.35;;;125.80;;
35677;SDS011;21791;42.828;74.582;2022-12-11T09:52:31;238.40;;;119.00;;
35677;SDS011;21791;42.828;74.582;2022-12-11T09:55:09;237.55;;;117.88;;
35677;SDS011;21791;42.828;74.582;2022-12-11T09:57:45;237.63;;;122.40;;
35677;SDS011;21791;42.828;74.582;2022-12-11T10:03:06;218.05;;;110.15;;
35677;SDS011;21791;42.828;74.582;2022-12-11T10:05:46;224.50;;;114.15;;
35677;SDS011;21791;42.828;74.582;2022-12-11T10:08:27;225.77;;;111.35;;
35677;SDS011;21791;42.828;74.582;2022-12-11T10:14:26;217.95;;;108.07;;
35677;SDS011;21791;42.828;74.582;2022-12-11T10:16:46;224.23;;;110.05;;
35677;SDS011;21791;42.828;74.582;2022-12-11T10:19:20;226.13;;;109.47;;
35677;SDS011;21791;42.828;74.582;2022-12-11T10:21:56;219.70;;;111.07;;
35677;SDS011;21791;42.828;74.582;2022-12-11T10:25:06;238.55;;;114.47;;
35677;SDS011;21791;42.828;74.582;2022-12-11T10:27:22;219.23;;;111.65;;
35677;SDS011;21791;42.828;74.582;2022-12-11T10:29:59;221.23;;;110.93;;
35677;SDS011;21791;42.828;74.582;2022-12-11T10:32:30;243.40;;;115.15;;
35677;SDS011;21791;42.828;74.582;2022-12-11T10:40:51;243.48;;;115.32;;
35677;SDS011;21791;42.828;74.582;2022-12-11T10:43:40;239.65;;;114.75;;
35677;SDS011;21791;42.828;74.582;2022-12-11T10:48:49;251.75;;;117.20;;
35677;SDS011;21791;42.828;74.582;2022-12-11T10:51:20;246.52;;;113.45;;
35677;SDS011;21791;42.828;74.582;2022-12-11T10:53:54;238.85;;;112.03;;
35677;SDS011;21791;42.828;74.582;2022-12-11T10:56:25;245.40;;;114.25;;
35677;SDS011;21791;42.828;74.582;2022-12-11T10:58:53;231.40;;;115.53;;
35677;SDS011;21791;42.828;74.582;2022-12-11T11:01:24;239.20;;;114.30;;
35677;SDS011;21791;42.828;74.582;2022-12-11T11:06:23;233.40;;;114.57;;
35677;SDS011;21791;42.828;74.582;2022-12-11T11:08:52;227.45;;;109.43;;
35677;SDS011;21791;42.828;74.582;2022-12-11T11:13:48;224.48;;;107.47;;
35677;SDS011;21791;42.828;74.582;2022-12-11T11:16:16;231.57;;;113.32;;
35677;SDS011;21791;42.828;74.582;2022-12-11T11:19:02;232.65;;;111.35;;
35677;SDS011;21791;42.828;74.582;2022-12-11T11:21:30;235.80;;;113.50;;
35677;SDS011;21791;42.828;74.582;2022-12-11T11:23:58;234.10;;;112.82;;
35677;SDS011;21791;42.828;74.582;2022-12-11T11:26:25;241.02;;;113.65;;
35677;SDS011;21791;42.828;74.582;2022-12-11T11:28:57;245.20;;;120.32;;
35677;SDS011;21791;42.828;74.582;2022-12-11T11:31:30;238.75;;;112.90;;
35677;SDS011;21791;42.828;74.582;2022-12-11T11:33:59;232.75;;;113.07;;
35677;SDS011;21791;42.828;74.582;2022-12-11T11:36:33;241.70;;;109.25;;
35677;SDS011;21791;42.828;74.582;2022-12-11T11:44:33;238.77;;;115.90;;
35677;SDS011;21791;42.828;74.582;2022-12-11T11:47:09;245.95;;;117.60;;
35677;SDS011;21791;42.828;74.582;2022-12-11T11:55:20;240.10;;;114.22;;
35677;SDS011;21791;42.828;74.582;2022-12-11T11:58:16;225.00;;;112.68;;
35677;SDS011;21791;42.828;74.582;2022-12-11T12:00:49;220.85;;;113.45;;
35677;SDS011;21791;42.828;74.582;2022-12-11T12:03:20;241.55;;;119.53;;
35677;SDS011;21791;42.828;74.582;2022-12-11T12:08:43;242.15;;;119.30;;
35677;SDS011;21791;42.828;74.582;2022-12-11T12:22:22;241.45;;;122.32;;
35677;SDS011;21791;42.828;74.582;2022-12-11T12:27:54;251.05;;;126.55;;
35677;SDS011;21791;42.828;74.582;2022-12-11T12:36:21;258.65;;;128.88;;
35677;SDS011;21791;42.828;74.582;2022-12-11T12:39:01;259.85;;;132.52;;
35677;SDS011;21791;42.828;74.582;2022-12-11T12:41:58;257.67;;;128.73;;
35677;SDS011;21791;42.828;74.582;2022-12-11T12:44:25;274.67;;;136.15;;
35677;SDS011;21791;42.828;74.582;2022-12-11T12:46:58;283.42;;;142.52;;
35677;SDS011;21791;42.828;74.582;2022-12-11T12:49:45;282.52;;;139.02;;
35677;SDS011;21791;42.828;74.582;2022-12-11T12:54:43;327.05;;;157.93;;
35677;SDS011;21791;42.828;74.582;2022-12-11T12:57:33;334.35;;;167.30;;
35677;SDS011;21791;42.828;74.582;2022-12-11T13:00:04;339.20;;;164.20;;
35677;SDS011;21791;42.828;74.582;2022-12-11T13:02:34;326.33;;;163.85;;
35677;SDS011;21791;42.828;74.582;2022-12-11T13:05:28;350.83;;;165.18;;
35677;SDS011;21791;42.828;74.582;2022-12-11T13:08:02;350.38;;;164.98;;
35677;SDS011;21791;42.828;74.582;2022-12-11T13:10:31;358.52;;;180.93;;
35677;SDS011;21791;42.828;74.582;2022-12-11T13:12:59;361.90;;;178.10;;
35677;SDS011;21791;42.828;74.582;2022-12-11T13:17:57;309.75;;;147.55;;
35677;SDS011;21791;42.828;74.582;2022-12-11T13:20:27;308.50;;;150.73;;
35677;SDS011;21791;42.828;74.582;2022-12-11T13:23:18;291.77;;;144.98;;
35677;SDS011;21791;42.828;74.582;2022-12-11T13:26:15;303.88;;;149.43;;
35677;SDS011;21791;42.828;74.582;2022-12-11T13:28:54;295.52;;;140.05;;
35677;SDS011;21791;42.828;74.582;2022-12-11T13:33:56;276.17;;;137.30;;
35677;SDS011;21791;42.828;74.582;2022-12-11T13:36:34;270.63;;;137.38;;
35677;SDS011;21791;42.828;74.582;2022-12-11T13:39:05;266.50;;;134.90;;
35677;SDS011;21791;42.828;74.582;2022-12-11T13:41:43;285.33;;;144.18;;
35677;SDS011;21791;42.828;74.582;2022-12-11T13:44:26;276.48;;;138.70;;
35677;SDS011;21791;42.828;74.582;2022-12-11T13:46:57;311.55;;;149.77;;
35677;SDS011;21791;42.828;74.582;2022-12-11T13:49:29;287.15;;;142.15;;
35677;SDS011;21791;42.828;74.582;2022-12-11T13:52:01;276.63;;;139.98;;
35677;SDS011;21791;42.828;74.582;2022-12-11T13:54:31;308.30;;;153.32;;
35677;SDS011;21791;42.828;74.582;2022-12-11T13:59:55;302.00;;;151.00;;
35677;SDS011;21791;42.828;74.582;2022-12-11T14:05:08;314.50;;;149.32;;
35677;SDS011;21791;42.828;74.582;2022-12-11T14:07:39;320.08;;;150.45;;
35677;SDS011;21791;42.828;74.582;2022-12-11T14:10:25;307.85;;;148.73;;
35677;SDS011;21791;42.828;74.582;2022-12-11T14:12:58;342.02;;;161.85;;
35677;SDS011;21791;42.828;74.582;2022-12-11T14:15:31;338.65;;;160.95;;
35677;SDS011;21791;42.828;74.582;2022-12-11T14:18:00;336.13;;;161.95;;
35677;SDS011;21791;42.828;74.582;2022-12-11T14:20:29;335.60;;;161.48;;
35677;SDS011;21791;42.828;74.582;2022-12-11T14:23:04;335.48;;;164.43;;
35677;SDS011;21791;42.828;74.582;2022-12-11T14:25:34;354.13;;;170.93;;
35677;SDS011;21791;42.828;74.582;2022-12-11T14:28:00;333.30;;;158.57;;
35677;SDS011;21791;42.828;74.582;2022-12-11T14:30:29;303.20;;;151.75;;
35677;SDS011;21791;42.828;74.582;2022-12-11T14:32:58;302.65;;;150.48;;
35677;SDS011;21791;42.828;74.582;2022-12-11T14:35:30;323.70;;;158.00;;
35677;SDS011;21791;42.828;74.582;2022-12-11T14:37:59;304.90;;;150.55;;
35677;SDS011;21791;42.828;74.582;2022-12-11T14:40:36;328.58;;;155.52;;
35677;SDS011;21791;42.828;74.582;2022-12-11T14:43:07;300.38;;;149.38;;
35677;SDS011;21791;42.828;74.582;2022-12-11T14:45:41;313.23;;;154.00;;
35677;SDS011;21791;42.828;74.582;2022-12-11T14:48:17;303.88;;;146.10;;
35677;SDS011;21791;42.828;74.582;2022-12-11T14:50:52;350.40;;;178.52;;
35677;SDS011;21791;42.828;74.582;2022-12-11T14:53:23;366.67;;;176.57;;
35677;SDS011;21791;42.828;74.582;2022-12-11T14:56:00;369.50;;;189.38;;
35677;SDS011;21791;42.828;74.582;2022-12-11T14:58:31;423.38;;;216.43;;
35677;SDS011;21791;42.828;74.582;2022-12-11T15:01:25;413.42;;;210.93;;
35677;SDS011;21791;42.828;74.582;2022-12-11T15:06:44;463.98;;;234.98;;
35677;SDS011;21791;42.828;74.582;2022-12-11T15:12:12;440.13;;;226.80;;
35677;SDS011;21791;42.828;74.582;2022-12-11T15:14:54;437.52;;;228.57;;
35677;SDS011;21791;42.828;74.582;2022-12-11T15:17:27;453.13;;;234.23;;
35677;SDS011;21791;42.828;74.582;2022-12-11T15:19:56;432.52;;;227.02;;
35677;SDS011;21791;42.828;74.582;2022-12-11T15:22:36;388.58;;;201.20;;
35677;SDS011;21791;42.828;74.582;2022-12-11T15:25:15;435.88;;;223.07;;
35677;SDS011;21791;42.828;74.582;2022-12-11T15:27:54;429.40;;;218.90;;
35677;SDS011;21791;42.828;74.582;2022-12-11T15:30:24;453.42;;;237.35;;
35677;SDS011;21791;42.828;74.582;2022-12-11T15:35:33;436.48;;;224.02;;
35677;SDS011;21791;42.828;74.582;2022-12-11T15:38:01;443.60;;;229.40;;
35677;SDS011;21791;42.828;74.582;2022-12-11T15:40:28;438.27;;;228.63;;
35677;SDS011;21791;42.828;74.582;2022-12-11T15:42:55;424.23;;;221.77;;
35677;SDS011;21791;42.828;74.582;2022-12-11T15:45:26;422.15;;;220.63;;
35677;SDS011;21791;42.828;74.582;2022-12-11T15:47:54;459.95;;;237.43;;
35677;SDS011;21791;42.828;74.582;2022-12-11T15:50:23;448.52;;;231.30;;
35677;SDS011;21791;42.828;74.582;2022-12-11T15:52:54;436.00;;;222.15;;
35677;SDS011;21791;42.828;74.582;2022-12-11T15:55:22;414.50;;;214.77;;